2018 Hungry Duck Half Marathon & 5K

back to results

Jul. 4, 2018

2018 Hungry Duck Half Marathon & 5K
Brighton, Michigan
Provided by Rotpac Racing, L.L.C.



Hungry Duck Half Marathon & 5K
Age Group Results
July 04, 2018
Results By Race Management Systems, Inc.

Half Marathon
Female Open Winners

Place Name City Age Overall Total Time Pace
1 Amy Natalini Barksdale AFB LA 36 5 1:28:19.3 6:45/M

Female Masters' Winners

Place Name City Age Overall Total Time Pace
1 Cristina Noble Brighton MI 43 7 1:30:52.6 6:56/M

Female 20 to 24

Place Name City Age Overall Total Time Pace
1 Maya Riddle Berkley MI 20 69 2:09:42.7 9:54/M
2 Anna Dehondt Berkley MI 20 70 2:09:42.9 9:54/M
3 Mikala Dicks Toledo OH 22 83 2:17:27.3 10:30/M
4 Caroline Beaver Lexington MI 20 105 2:25:30.9 11:06/M
5 Emily McDonald Port Huron MI 23 106 2:26:35.8 11:11/M

Female 25 to 29

Place Name City Age Overall Total Time Pace
1 Bianca Thiels Grapevine TX 25 13 1:39:01.8 7:34/M
2 Brittani Amell Howell MI 27 25 1:45:01.0 8:01/M
3 Mackenzie Keranen Brighton MI 25 27 1:46:11.3 8:06/M
4 Briana Dye Ann Arbor MI 29 43 1:54:22.5 8:44/M
5 Marie Markell Howell MI 27 52 1:59:25.6 9:07/M
6 Kyla Cross Clinton Township MI 26 62 2:05:00.1 9:33/M
7 Megan Duff Tupelo MS 26 78 2:15:30.5 10:21/M
8 Allison Maynard Saginaw MI 27 82 2:16:32.7 10:25/M
9 Melisa Shaw Garden City MI 27 90 2:20:30.2 10:44/M
10 Kathleen Tuttle Westland MI 28 96 2:23:01.0 10:55/M
11 Kendra Smiatowicz Milan MI 27 97 2:23:01.0 10:55/M
12 Sheila Francis Attica MI 27 98 2:23:18.8 10:56/M
13 Nicole Green Roseville MI 26 114 2:30:08.2 11:28/M
14 Kristin Hofman East Lansing MI 28 123 2:41:51.7 12:21/M

Female 30 to 34

Place Name City Age Overall Total Time Pace
1 Petajaye English Dewitt MI 33 16 1:42:01.3 7:47/M
2 Katie Noble Pinckney MI 33 23 1:44:32.7 7:59/M
3 Jessica Wortinger Westland MI 34 30 1:46:20.2 8:07/M
4 Stefanie Driesenga Ann Arbor MI 31 32 1:47:38.4 8:13/M
5 Meredith Dimick Clarkston MI 30 42 1:53:05.9 8:38/M
6 Jessica Dunn-Smith Clarkston MI 30 50 1:57:04.6 8:56/M
7 Emily Concienne Brighton MI 31 59 2:04:05.6 9:28/M
8 Kristi Mauss Royal Oak MI 31 60 2:04:34.3 9:31/M
9 Allison Staccone Toledo OH 33 63 2:05:16.9 9:34/M
10 Marni Gauci Brighton MI 34 65 2:06:34.2 9:40/M
11 Anna Przybylski Milford MI 30 86 2:18:32.0 10:35/M

Female 35 to 39

Place Name City Age Overall Total Time Pace
1 Katie Johnston Northville MI 37 24 1:44:44.4 8:00/M
2 Ilaaf Darrat Plymouth MI 37 37 1:50:00.5 8:24/M
3 Jen Crutchfield Hartland MI 36 45 1:55:11.0 8:48/M
4 Jessie Jarrad Howell MI 36 51 1:58:59.2 9:05/M
5 Karen Kazensky Westland MI 39 54 2:02:07.5 9:19/M
6 Lauren Velazquez Orlando FL 35 55 2:02:08.5 9:19/M
7 Bailey Winn Milford MI 37 56 2:02:31.7 9:21/M
8 Staci Sanders Brighton MI 37 67 2:07:24.4 9:44/M
9 Jennifer Mullin West Bloomfield MI 35 71 2:12:54.5 10:09/M
10 Betsy Anderson Auburn MI 39 74 2:14:02.5 10:14/M
11 Tracy Flak Howell MI 39 77 2:15:26.4 10:20/M
12 Kathy Murphy Austin TX 35 94 2:22:16.4 10:52/M
13 Emi Kraus New Hudson MI 39 99 2:23:27.9 10:57/M
14 Autumn Ochoa Fraser MI 38 110 2:27:41.6 11:16/M
15 Danielle North Detroit MI 35 117 2:35:25.8 11:52/M
16 Laura Lubahn New Hudson MI 35 119 2:37:13.6 12:00/M
17 Mary Beth Snyder Birmingham MI 39 120 2:37:14.4 12:00/M
18 Rebecca Cassell Howell MI 38 122 2:41:15.8 12:19/M
19 Elizabeth Lally Gambrills MD 39 129 2:44:11.2 12:32/M
20 Jessica Souva South Lyon MI 39 131 2:48:45.3 12:53/M
21 Megan Briggs Brighton MI 38 132 2:49:10.6 12:55/M

Female 40 to 44

Place Name City Age Overall Total Time Pace
1 Tendai Thomas Farmington MI 43 17 1:42:31.4 7:50/M
2 Katie Paguette Brighton MI 40 29 1:46:18.3 8:07/M
3 Elizabeth Shafer Monroe MI 41 41 1:52:28.7 8:35/M
4 Rebecca Dragan Canton MI 42 49 1:56:37.0 8:54/M
5 Amanda Langenderfer Swanton OH 40 72 2:13:45.5 10:13/M
6 Janet White Maumee OH 43 79 2:15:46.8 10:22/M
7 Karen McLennan Fenton MI 43 100 2:23:28.2 10:57/M
8 Candace Booth Linden MI 40 118 2:35:54.1 11:54/M
9 Colleen Oxby Lansing MI 43 124 2:41:51.9 12:21/M
10 Rachelle Swart Novi MI 41 136 3:00:57.0 13:49/M

Female 45 to 49

Place Name City Age Overall Total Time Pace
1 Marcy Sacks Albion MI 48 35 1:49:08.3 8:20/M
2 Stephanie Smith Howell MI 46 38 1:50:04.9 8:24/M
3 Shirley Kolakovich Clarkston MI 47 68 2:09:16.9 9:52/M
4 Winnie Fukuda Granite Bay CA 47 84 2:18:00.2 10:32/M
5 Susan Toth Brighton MI 48 88 2:19:37.5 10:39/M
6 Amber Ihrke Homer Glen IL 47 91 2:22:05.9 10:51/M
7 Denise Dashner Temperance MI 48 125 2:41:52.0 12:21/M

Female 50 to 54

Place Name City Age Overall Total Time Pace
1 Mary Dorazio Whitmore Lake MI 50 21 1:43:23.9 7:54/M
2 Barb MacKey Dexter MI 51 76 2:15:12.9 10:19/M
3 Vicky Vulaj Brighton MI 52 112 2:30:01.7 11:27/M
4 Kerreen Conley Belleville MI 51 121 2:38:24.6 12:05/M

Female 55 to 59

Place Name City Age Overall Total Time Pace
1 Nancy Schubring Novi MI 57 19 1:43:02.4 7:52/M
2 Patricia Rapp Sylvania OH 55 47 1:55:51.0 8:51/M

Female 60 to 64

Place Name City Age Overall Total Time Pace
1 Kathleen Step Ann Arbor MI 61 87 2:18:32.8 10:35/M
2 Cindi Holman Brighton MI 64 133 2:51:29.3 13:05/M

Female 70 and over

Place Name City Age Overall Total Time Pace
1 Nina Bovio Brighton MI 72 135 2:56:30.1 13:28/M

Male Open Winners

Place Name City Age Overall Total Time Pace
1 Samuel Parlette White Lake MI 24 1 1:18:35.3 6:00/M

Male Masters' Winners

Place Name City Age Overall Total Time Pace
1 Michael Petrucci Howell MI 43 14 1:40:33.2 7:41/M

Male 15 to 19

Place Name City Age Overall Total Time Pace
1 Kyle Petronio Brighton MI 19 8 1:35:21.6 7:17/M
2 Derek Fukuda Granite Bay CA 15 48 1:55:57.8 8:51/M
3 Reide Marowelli Saline MI 15 108 2:26:47.7 11:12/M

Male 20 to 24

Place Name City Age Overall Total Time Pace
1 Nick Gapp Highland MI 21 2 1:22:11.5 6:16/M
2 Rudy Marshall Hartland MI 23 4 1:27:53.9 6:43/M
3 Derek Compeau Royal Oak MI 24 66 2:06:48.0 9:41/M

Male 25 to 29

Place Name City Age Overall Total Time Pace
1 Eric Swahn Sterling Heights MI 26 46 1:55:34.9 8:49/M
2 Benjamin Woodcock Howell MI 28 134 2:53:45.8 13:16/M

Male 30 to 34

Place Name City Age Overall Total Time Pace
1 Justin Noble Pinckney MI 33 9 1:35:27.0 7:17/M
2 Mike Driesenga Ann Arbor MI 33 11 1:35:58.2 7:20/M
3 Zach Mauss Royal Oak MI 34 15 1:40:48.7 7:42/M
4 Kevin Gienapp Jackson MI 33 18 1:42:34.7 7:50/M
5 Hans Schurig Utica MI 32 31 1:47:16.4 8:11/M
6 Ryan Cullen Canton MI 34 81 2:16:26.3 10:25/M
7 Jason Ardanowski Highland MI 33 107 2:26:37.3 11:12/M
8 R. J. Krystowiak Monroe MI 34 109 2:27:17.7 11:15/M
9 Nick Zambardi Ferndale MI 31 115 2:30:38.2 11:30/M

Male 35 to 39

Place Name City Age Overall Total Time Pace
1 Simon Gore South Lyon MI 36 3 1:25:16.5 6:31/M
2 Bruce Mayrand Howell MI 39 6 1:28:32.9 6:45/M
3 Colby Broadwater Grosse Pointe MI 36 10 1:35:57.3 7:19/M
4 Peter White Holt MI 38 12 1:37:39.7 7:27/M
5 Ryan Natalini Barksdale AFB LA 37 26 1:45:01.9 8:01/M
6 Ray Ng Canton MI 37 34 1:48:28.6 8:17/M
7 Noah Kelley Lebanon IN 36 53 2:01:24.7 9:16/M
8 Samuel Willingham Wayne MI 38 116 2:31:17.5 11:33/M
9 Pavan Guduru West Bloomfield MI 36 128 2:41:54.2 12:22/M

Male 40 to 44

Place Name City Age Overall Total Time Pace
1 Bart Marowelli Saline MI 40 20 1:43:08.6 7:52/M
2 Rich Moha Alexandria VA 44 64 2:05:59.8 9:37/M
3 Andrew Hopkins Lasallle ON 43 73 2:13:48.0 10:13/M
4 Michael Werner Saint Clair Shores MI 42 95 2:22:26.8 10:52/M
5 Sean Lally Gambrills MD 40 130 2:44:27.4 12:33/M

Male 45 to 49

Place Name City Age Overall Total Time Pace
1 Scott Paxton Brighton MI 48 44 1:54:49.9 8:46/M
2 John Clark Pinckney MI 48 57 2:03:01.5 9:23/M
3 Jim McLindon Allen TX 48 61 2:04:46.0 9:31/M
4 John Schumaker Maumee OH 48 80 2:15:47.0 10:22/M
5 Kyle Fukuda Granite Bay CA 47 85 2:18:01.0 10:32/M
6 David Ihrke Homer Glen IL 49 92 2:22:07.0 10:51/M
7 Bill Oxby Lansing MI 47 93 2:22:08.9 10:51/M
8 Roger Van Beveren South Lyon MI 45 101 2:24:12.7 11:00/M
9 Michael Shararah Commerce Township MI 48 102 2:24:17.3 11:01/M
10 Patrick Sturdy Brighton MI 48 111 2:28:07.0 11:18/M

Male 50 to 54

Place Name City Age Overall Total Time Pace
1 Anthony Judge West Bloomfield MI 54 28 1:46:12.8 8:06/M
2 Cosimo Carfagna Franklin MI 53 36 1:49:27.5 8:21/M
3 Scott Toth Brighton MI 54 89 2:19:37.7 10:39/M

Male 55 to 59

Place Name City Age Overall Total Time Pace
1 John Demarco Brighton MI 56 22 1:43:59.3 7:56/M
2 Donald E MacKinnon Toledo OH 55 33 1:47:55.5 8:14/M
3 Paul Burant Brighton MI 55 39 1:50:16.5 8:25/M
4 Steve Broda Northville MI 56 40 1:51:36.3 8:31/M
5 Qinghui Liu Ann Arbor MI 55 103 2:24:36.7 11:02/M
6 Jon Margerum-Leys Lake Orion MI 55 104 2:25:10.6 11:05/M
7 Barry Vlassis Jacksonville NC 58 113 2:30:04.8 11:27/M
8 Jim Zittel Waterford MI 55 127 2:41:53.1 12:21/M

Male 60 to 64

Place Name City Age Overall Total Time Pace
1 Paul Flynn Almont MI 60 75 2:14:56.5 10:18/M
2 Bob Bolda Haslett MI 61 126 2:41:52.0 12:21/M

Male 65 to 69

Place Name City Age Overall Total Time Pace
1 Ron Smith Pinckney MI 65 58 2:04:04.3 9:28/M

5K Run/Walk
Female Open Winners

Place Name City Age Overall Total Time Pace
1 Amber Dermyre Farmington MI 28 9 18:52.0 6:04/M

Female Masters' Winners

Place Name City Age Overall Total Time Pace
1 Jeralyn McGahan Brighton MI 52 26 21:59.8 7:04/M

Female 14 and under

Place Name City Age Overall Total Time Pace
1 Abby Smith Brighton MI 13 58 24:38.2 7:55/M
2 Emily Ihrke Homer Glen IL 12 81 26:14.1 8:26/M
3 Emily Pfaff Brighton MI 14 129 28:26.6 9:09/M
4 Rayna Klejeski Barnum MN 13 167 31:20.7 10:05/M
5 Ana Aguilar Canton MI 13 182 32:27.7 10:26/M
6 Mikayla Guyette Brighton MI 12 184 32:32.8 10:28/M
7 Sydney Kelly Howell MI 12 211 35:15.2 11:20/M
8 Bailey Arbic West Lafayette IN 12 217 36:03.9 11:35/M
9 Abigail Galazka Brighton MI 8 219 36:18.7 11:40/M
10 Mackenzie Bishop Colorado Springs CO 12 255 39:40.6 12:45/M
11 Azul Pasillas Ann Arbor MI 14 300 53:07.2 17:05/M

Female 15 to 19

Place Name City Age Overall Total Time Pace
1 Kaia Johnson Brighton MI 18 22 21:08.3 6:48/M
2 Catherine Ihrke Homer Glen IL 15 36 22:38.6 7:17/M
3 Rachel O'Rourke Highland MI 18 37 22:39.0 7:17/M
4 Lindsey Murrell Brighton MI 18 43 23:21.6 7:30/M
5 Ivy Muench Brighton MI 16 124 28:13.5 9:04/M
6 Madeline Ihrke Homer Glen IL 15 199 33:53.9 10:54/M
7 Elizabeth Ihrke Homer Glen IL 18 203 34:07.2 10:58/M
8 Adriana Dailide Novi MI 16 282 46:47.9 15:03/M
9 Lynne Ruden Howell MI 18 293 51:38.7 16:36/M
10 Frida Pasillas Ann Arbor MI 15 301 53:07.2 17:05/M

Female 20 to 24

Place Name City Age Overall Total Time Pace
1 Marissa McGahan Brighton MI 22 11 19:27.6 6:15/M
2 Aleighsha Engisch Linden MI 23 14 20:04.4 6:27/M
3 Jessica Thiels Grapevine TX 23 29 22:16.0 7:10/M
4 Maurgan Lee West Bloomfield MI 20 51 23:43.5 7:38/M
5 Sarah Stasilowicz Wixom MI 22 151 30:18.0 9:45/M
6 Kelsey Jones Ann Arbor MI 24 221 36:31.3 11:45/M
7 Sarah Spencer Whitmore Lake MI 24 239 38:22.0 12:20/M
8 Alyssa Neelis Brighton MI 22 248 39:03.0 12:33/M
9 Alexandra Perry Brighton MI 20 278 45:44.4 14:42/M
10 Meghan Williams Ann Arbor MI 23 280 45:46.6 14:43/M

Female 25 to 29

Place Name City Age Overall Total Time Pace
1 Diana McCauley Brighton MI 27 60 24:44.5 7:57/M
2 Catherine Huffman Pinckney MI 26 67 25:26.5 8:11/M
3 Emily Cattley El Paso TX 26 84 26:22.1 8:29/M
4 Erica Grochowski Howell MI 26 88 26:34.3 8:33/M
5 Megan Berti Berkley MI 27 96 26:52.5 8:38/M
6 Madison Goodspeed Troy MI 25 97 26:52.7 8:38/M
7 Kathleen Grace Brighton MI 26 107 27:28.9 8:50/M
8 Melissa Bechtel Howell MI 28 121 28:07.0 9:02/M
9 Ashley Elder Howell MI 28 135 28:53.7 9:17/M
10 Samantha Yamil Brighton MI 29 162 31:02.2 9:59/M
11 Chelsea Norton Marquette MI 28 172 31:39.3 10:11/M
12 Mackenzie Kniep Farmington MI 25 173 31:39.6 10:11/M
13 Gabby Gesulgon Ann Arbor MI 25 181 32:25.5 10:25/M
14 Joanne Beckwith Ann Arbor MI 27 183 32:28.7 10:26/M
15 Grace Smith Clarkston MI 26 191 33:02.7 10:37/M
16 Ellen Woodcock Brighton MI 26 193 33:08.9 10:39/M
17 Natalie Phillips Rochester Hills MI 26 216 35:51.2 11:32/M
18 Wendy Ayala Brighton MI 26 222 36:32.7 11:45/M
19 Leah Diebel Ypsilanti MI 28 238 38:22.0 12:20/M
20 Shaina Burke Wixom MI 26 288 49:29.4 15:55/M

Female 30 to 34

Place Name City Age Overall Total Time Pace
1 Sarah Boyle Brighton MI 32 15 20:07.9 6:28/M
2 Jennifer Gienapp Jackson MI 33 46 23:32.9 7:34/M
3 Julie Friend Brighton MI 34 78 25:57.5 8:21/M
4 Tara Wiedbusch Bloomfield Hills MI 32 83 26:20.8 8:28/M
5 Andrea Gillespie Brighton MI 33 91 26:36.4 8:33/M
6 Katie Moore Brighton MI 31 145 29:47.6 9:35/M
7 Katie Fuchs Ferndale MI 33 158 30:54.3 9:56/M
8 Alison Skwarski Brighton MI 33 159 30:58.9 9:57/M
9 Shannon Serrico Brighton MI 30 165 31:17.2 10:04/M
10 Heather Boutell Howell MI 30 174 31:46.9 10:13/M
11 Jodi Self Brighton MI 34 177 32:07.2 10:20/M
12 Suzie Miller Brighton MI 31 196 33:24.9 10:44/M
13 Kelly Jondahl Mesa AZ 33 209 34:53.0 11:13/M
14 Katie Cullen Florence SC 32 210 35:14.2 11:20/M
15 Alexandria Miller Dearborn Heights MI 31 257 40:00.7 12:52/M
16 Anabel Fierro Ann Arbor MI 31 302 53:08.6 17:05/M

Female 35 to 39

Place Name City Age Overall Total Time Pace
1 Katherin Hartman Brighton MI 39 55 24:19.8 7:49/M
2 Karen Wright Brighton MI 38 66 25:22.3 8:09/M
3 Andrea Farrugia Brighton MI 39 70 25:30.5 8:12/M
4 Sarah Hickey Brighton MI 37 71 25:38.8 8:15/M
5 Jessica Chaplin Brighton MI 36 85 26:25.5 8:30/M
6 Elizabeth Barz Mt. Pleasant MI 35 114 27:44.3 8:55/M
7 Jamie Arora Washington DC 35 116 27:52.4 8:58/M
8 Rachel Henderson Brighton MI 35 125 28:16.1 9:05/M
9 Yuliya Reusze Brighton MI 39 132 28:45.6 9:15/M
10 Anne Moskal Howell MI 39 133 28:47.9 9:15/M
11 Tammy Musto Brighton MI 39 180 32:18.4 10:23/M
12 Melissa Guyette Brighton MI 39 185 32:33.3 10:28/M
13 Raquel Williams Brighton MI 38 194 33:11.2 10:40/M
14 Elizabeth Messina Milford MI 36 201 34:02.7 10:57/M
15 Heather Sharp Howell MI 35 207 34:31.4 11:06/M
16 Nicole Ehinger Pinckney MI 35 213 35:32.2 11:26/M
17 Joani Perdue Avon IN 36 215 35:48.0 11:31/M
18 Katie Anderson Brighton MI 36 225 36:49.3 11:50/M
19 Stacy Davis Holly MI 36 233 37:15.5 11:59/M
20 Kristi Arbic West Lafayette IN 37 237 37:50.9 12:10/M
21 Toni Reese New Hudson MI 36 242 38:30.9 12:23/M
22 Karla Williams Brighton MI 37 258 40:03.7 12:53/M
23 Noelle Scharer Southgate MI 37 262 40:43.9 13:06/M
24 Rebecca Mayer Hartland MI 36 265 41:36.5 13:23/M
25 Elizabeth Nickerson Brighton MI 39 267 41:49.6 13:27/M
26 Beverley Dunn Plymouth MI 38 287 49:28.1 15:54/M
27 Jenny McDonald Brighton MI 37 294 51:51.8 16:40/M

Female 40 to 44

Place Name City Age Overall Total Time Pace
1 Jennifer Leicht Ann Arbor MI 43 87 26:29.2 8:31/M
2 Sara Johnson Brighton MI 44 89 26:34.8 8:33/M
3 Melissa Close Elmhurst IL 41 123 28:09.4 9:03/M
4 Stephanie Newton Brighton MI 42 137 28:55.9 9:18/M
5 Jennifer Osterman Clarkston MI 40 144 29:46.4 9:34/M
6 Abby Cooper Brighton MI 41 166 31:19.7 10:04/M
7 Amanda Cox Brighton MI 42 190 33:02.5 10:37/M
8 Jennifer Ryan 42 195 33:24.6 10:44/M
9 Jennifer Quinn Brighton MI 40 198 33:42.5 10:50/M
10 Serenity Kelly Howell MI 43 230 37:09.6 11:57/M
11 Anne Martin South Lyon MI 40 234 37:15.9 11:59/M
12 Michelle Hernandez Belleville MI 41 245 38:56.5 12:31/M
13 Julie Tamer Brighton MI 43 249 39:03.7 12:33/M
14 Theresa Agius Novi MI 41 269 42:26.1 13:39/M
15 Erika MacKin Brighton MI 40 270 42:29.4 13:40/M

Female 45 to 49

Place Name City Age Overall Total Time Pace
1 Nicole Kirgis Howell MI 45 48 23:36.0 7:35/M
2 Heather Clark Pinckney MI 48 99 26:58.2 8:40/M
3 Pam Webert Livonia MI 46 112 27:32.6 8:51/M
4 Amy Gluck Howell MI 46 126 28:25.4 9:08/M
5 Kathy Close Howell MI 49 140 29:12.1 9:23/M
6 Toni Scarano Homer Glen IL 48 240 38:28.1 12:22/M
7 Liz Mace Howell MI 48 251 39:15.1 12:37/M
8 Sonia Fawaz Commerce Township MI 48 261 40:17.1 12:57/M
9 Teresa Crenshaw Brighton MI 49 273 44:12.5 14:13/M
10 Michelle Perry Brighton MI 49 276 45:40.8 14:41/M
11 Jackie Senske Standish MI 49 283 48:01.4 15:26/M

Female 50 to 54

Place Name City Age Overall Total Time Pace
1 Shelly Demoss South Lyon MI 52 59 24:43.7 7:57/M
2 Cathy Markham Brighton MI 50 74 25:48.3 8:18/M
3 Karol Ostrowski Northville MI 52 75 25:49.4 8:18/M
4 Susan Campagnolo White Lake MI 52 128 28:26.0 9:09/M
5 Cynde Lentz Pinckney MI 54 138 28:58.2 9:19/M
6 Charlene MacHnak Whitmore Lake MI 52 142 29:26.5 9:28/M
7 Nancy Gapp Highland MI 53 147 29:55.4 9:37/M
8 Nancy Henger Brighton MI 52 155 30:46.7 9:54/M
9 Susan Barnett Brighton MI 50 161 31:01.2 9:58/M
10 Lynn Pfaff Brighton MI 54 192 33:03.4 10:38/M
11 Jackie Selig Pinckney MI 51 220 36:29.0 11:44/M
12 Andi McDonnell Pinckney MI 54 229 37:07.0 11:56/M
13 Evelyn Waldman Okemos MI 52 236 37:49.0 12:10/M
14 Christine Lawrence 51 263 41:09.1 13:14/M
15 Rhonda Chaplin Brighton MI 51 277 45:42.4 14:42/M
16 Stephanie Dunn Lansing MI 53 279 45:45.1 14:43/M
17 Deborah Hoffman Brighton MI 53 285 48:04.6 15:27/M
18 Kellie Stasilowicz Wixom MI 54 289 49:29.5 15:55/M
19 Lori Rigato Brighton MI 50 296 51:54.6 16:41/M

Female 55 to 59

Place Name City Age Overall Total Time Pace
1 Sandy Logan Northville MI 55 101 27:22.4 8:48/M
2 Jill Winegar Howell MI 59 110 27:31.9 8:51/M
3 Mary Leavitt Howell MI 58 136 28:55.2 9:18/M
4 Jane Brooks South Lyon MI 57 141 29:17.6 9:25/M
5 Kristie Veenstra Brighton MI 57 156 30:47.2 9:54/M
6 Deanna Swan Brighton MI 55 160 31:00.0 9:58/M
7 Tracey Lee West Bloomfield MI 55 202 34:05.3 10:58/M
8 Mary Ann Beck Brighton MI 56 204 34:09.3 10:59/M
9 Diane Schwarzkopf South Lyon MI 56 226 36:50.2 11:51/M
10 Julie Fegan Pinckney MI 55 227 36:55.0 11:52/M
11 Soozie Baker 55 228 37:06.7 11:56/M
12 Carolyn Bridges Southfield MI 59 250 39:12.1 12:36/M
13 Beth Michmerhuizen Howell MI 58 259 40:05.9 12:53/M
14 Patricia Moore Brighton MI 58 272 44:05.3 14:10/M
15 Judy Kopa Brighton MI 56 286 49:23.0 15:53/M
16 Lisa Bohlen Pleasant Ridge MI 56 297 52:28.5 16:52/M
17 Rena Pomaville Brighton MI 55 298 52:50.5 16:59/M
18 Martha James Plymouth MI 56 304 53:31.2 17:12/M

Female 60 to 64

Place Name City Age Overall Total Time Pace
1 Lynn Stanfield Brighton MI 62 61 24:46.3 7:58/M
2 Lori Vecchioni Brighton MI 60 72 25:39.9 8:15/M
3 Jennifer McCauley Brighton MI 64 150 30:10.9 9:42/M
4 Barb Jacobson Mason MI 60 171 31:29.0 10:07/M
5 Charlene Odom New Hudson MI 61 253 39:28.5 12:41/M
6 Sharon Gross Brighton MI 64 274 45:13.3 14:32/M
7 Monica McDonald New Hudson MI 63 291 50:33.5 16:15/M

Female 65 to 69

Place Name City Age Overall Total Time Pace
1 Jane Evans Brighton MI 67 200 33:59.8 10:56/M
2 Diane Morse Stockbridge MI 66 260 40:15.3 12:57/M
3 Susan Ruhnow Brighton MI 68 271 44:04.5 14:10/M

Male Open Winners

Place Name City Age Overall Total Time Pace
1 Chip Osborne Brighton MI 19 1 15:33.4 5:00/M

Male Masters' Winners

Place Name City Age Overall Total Time Pace
1 Jonathan Miller Royal Oak MI 42 10 19:22.5 6:14/M

Male 14 and under

Place Name City Age Overall Total Time Pace
1 Ryan O'Rourke Highland MI 14 6 17:57.0 5:46/M
2 Colin Robertson Milford MI 11 27 22:00.1 7:04/M
3 Tommy Tomm Palatine IL 12 35 22:38.1 7:17/M
4 Aidan Brake Gregory MI 14 45 23:32.5 7:34/M
5 Matthew Burris Howell MI 10 47 23:33.8 7:34/M
6 Bode Cooper Brighton MI 12 53 23:53.5 7:41/M
7 Logan Betke Brighton MI 14 57 24:37.6 7:55/M
8 Kyle O'Rourke Highland MI 10 92 26:41.5 8:35/M
9 Marcus Aguilar Canton MI 8 105 27:26.7 8:49/M
10 Finn Cooper Brighton MI 11 168 31:21.5 10:05/M
11 Andrew Aguilar Canton MI 11 188 32:42.6 10:31/M
12 Evan Martin South Lyon MI 8 223 36:38.9 11:47/M
13 Blake Davis Holly MI 8 232 37:12.8 11:58/M
14 Karl Reusze Brighton MI 12 235 37:43.3 12:08/M
15 Wyatt Young Howell MI 8 244 38:55.3 12:31/M
16 Henry Hernandez Belleville MI 3 246 38:59.3 12:32/M
17 Henry Mayer Hartland MI 10 264 41:35.5 13:22/M
18 Aidan Quinn Brighton MI 11 290 49:48.6 16:01/M
19 Andres Pasillas Ann Arbor MI 13 303 53:10.6 17:06/M

Male 15 to 19

Place Name City Age Overall Total Time Pace
1 Nolan McGahan Brighton MI 16 5 17:53.5 5:45/M
2 Aidan Bustillo Brighton MI 17 7 18:04.6 5:49/M
3 Valentin Schnitzel South Lyon MI 19 19 20:49.1 6:42/M
4 Haden Gallentine South Lyon MI 17 21 21:08.1 6:48/M
5 Cole Kirgis Howell MI 15 30 22:22.4 7:12/M
6 Vladimir Schnitzel South Lyon MI 17 33 22:30.9 7:14/M
7 Grant Smith Brighton MI 15 42 23:20.2 7:30/M
8 Nicholas Ryan Brighton MI 18 197 33:27.5 10:45/M
9 Thomas Ruden Howell MI 18 292 51:38.1 16:36/M

Male 20 to 24

Place Name City Age Overall Total Time Pace
1 Brian Moore Howell MI 21 2 15:43.8 5:03/M
2 Garrett McPeek Brighton MI 21 3 16:33.8 5:19/M
3 Kevin Schuett Brighton MI 23 13 20:04.0 6:27/M
4 Kyle Hanson Brighton MI 22 18 20:45.4 6:40/M
5 Sebastian Thiels Grapevine TX 20 32 22:30.9 7:14/M
6 Oliver Brinsford Grapevine TX 23 62 24:48.7 7:58/M
7 Ben Phillies Brighton MI 21 111 27:32.4 8:51/M
8 Henry Brinsford Grapevine TX 23 115 27:46.8 8:56/M
9 Dominick Goderis Pontiac MI 21 178 32:08.2 10:20/M
10 Matt Brizuela Grapevine TX 21 212 35:18.4 11:21/M
11 Dustin Hitchings Ann Arbor MI 22 281 45:46.8 14:43/M

Male 25 to 29

Place Name City Age Overall Total Time Pace
1 Wilson Pines Troy MI 25 16 20:32.0 6:36/M
2 Mark Keranen Brighton MI 26 20 21:02.7 6:46/M
3 Steve Tomburrini Clarkston MI 29 23 21:17.3 6:51/M
4 Zachary Ellsworth Brighton MI 28 24 21:39.4 6:58/M
5 Ryan Fegan Pinckney MI 27 28 22:10.2 7:08/M
6 Grant Goodspeed Troy MI 26 39 22:39.8 7:17/M
7 Brent Garner Pinellas Park FL 25 52 23:44.7 7:38/M
8 Alex Cattley El Paso TX 26 86 26:27.0 8:30/M
9 Nick Berti Berkley MI 28 95 26:51.4 8:38/M
10 Ryan Zaloga Brighton MI 26 102 27:23.2 8:48/M
11 Craig Michaels Brighton MI 28 104 27:25.3 8:49/M
12 Joshua Huffman Pinckney MI 28 164 31:13.3 10:02/M
13 Dominik Traudt Brighton MI 27 170 31:26.1 10:06/M
14 David Foley Brighton MI 27 179 32:17.6 10:23/M
15 Mike McNally Brighton MI 25 206 34:25.5 11:04/M

Male 30 to 34

Place Name City Age Overall Total Time Pace
1 Ian Boyle Brighton MI 31 4 17:09.9 5:31/M
2 Chris Elsey South Lyon MI 32 8 18:30.3 5:57/M
3 Ron Friend Brighton MI 34 12 19:57.4 6:25/M
4 Brenton Montie South Lyon MI 33 38 22:39.3 7:17/M
5 Clifford Smit Grapevine TX 34 65 25:19.6 8:08/M
6 Joshua Maddock South Lyon MI 30 90 26:34.9 8:33/M
7 William Berti Holt MI 31 98 26:53.0 8:39/M
8 Shawn Irwin Howell MI 33 119 28:02.6 9:01/M
9 Brad Fukuda Half Moon Bay CA 32 189 33:02.0 10:37/M
10 Josh Williams Howell MI 31 214 35:41.0 11:28/M
11 Stephen Cullen Florence SC 33 231 37:10.9 11:57/M
12 Ramon Ruiz Brighton MI 31 247 39:00.4 12:32/M

Male 35 to 39

Place Name City Age Overall Total Time Pace
1 Ian Horste Howell MI 36 17 20:34.8 6:37/M
2 Scott Bolon Brighton MI 36 50 23:42.5 7:37/M
3 Charles Young Howell MI 38 56 24:33.1 7:54/M
4 Eric Barz Mt. Pleasant MI 35 106 27:28.6 8:50/M
5 Raymond Smith Brighton MI 37 118 27:58.2 9:00/M
6 Ted Close Elmhurst IL 39 120 28:05.7 9:02/M
7 Matthew Galazka Brighton MI 35 218 36:18.5 11:40/M
8 Greg Jankowski Colorado Springs CO 39 254 39:35.9 12:44/M

Male 40 to 44

Place Name City Age Overall Total Time Pace
1 Matt Farrugia Brighton MI 42 40 22:43.5 7:18/M
2 Joshua Wright Brighton MI 40 64 25:00.9 8:02/M
3 Jon Burris Howell MI 42 127 28:25.6 9:08/M
4 Jim Moskal Howell MI 40 134 28:48.3 9:16/M
5 Duke Kelly Howell MI 43 169 31:23.6 10:05/M
6 Dan Hernandez Belleville MI 41 243 38:54.0 12:30/M

Male 45 to 49

Place Name City Age Overall Total Time Pace
1 Enrique Aguilar Canton MI 46 41 23:03.2 7:25/M
2 Jason Brake Gregory MI 45 54 24:05.2 7:45/M
3 Scott Hara Half Moon Bay CA 47 68 25:27.4 8:11/M
4 Vincent Hittie Monroe MI 48 77 25:57.5 8:21/M
5 Michael Ryan Brighton MI 47 80 26:11.8 8:25/M
6 Shawn Austin Howell MI 47 108 27:29.0 8:50/M
7 Rodney Betke Brighton MI 45 176 32:00.8 10:17/M
8 John Puh Houston TX 45 256 39:42.9 12:46/M
9 Tom Esper Brighton MI 47 295 51:51.8 16:40/M

Male 50 to 54

Place Name City Age Overall Total Time Pace
1 Paul Wrona Brighton MI 51 31 22:26.2 7:13/M
2 Kenneth Vanblaricum Brighton MI 50 117 27:55.0 8:59/M
3 Rick Markham Brighton MI 51 146 29:47.9 9:35/M
4 Brian Richardson Brighton MI 53 152 30:28.0 9:48/M
5 Darin Phillips Brighton MI 50 157 30:52.8 9:55/M
6 Russell Carter Lansing MI 53 186 32:36.2 10:29/M
7 Bryan Barnett 53 208 34:35.6 11:07/M
8 Matthew Weber Fenton MI 51 241 38:30.1 12:23/M
9 Doug Henger Brighton MI 53 268 41:55.6 13:29/M
10 Brian Muench Brighton MI 53 299 52:51.3 17:00/M

Male 55 to 59

Place Name City Age Overall Total Time Pace
1 Greg MacDonald Anchorage AK 57 44 23:26.2 7:32/M
2 David Moore Brighton MI 59 49 23:38.3 7:36/M
3 Brian Garner Pinellas Park FL 57 63 24:53.1 8:00/M
4 Gordon Giegler Brighton MI 58 69 25:29.7 8:12/M
5 Scott Reusze Brighton MI 55 73 25:42.5 8:16/M
6 Bob Skrobot Howell MI 55 82 26:20.7 8:28/M
7 Marcelo Ponti Brighton MI 58 93 26:49.1 8:37/M
8 Andy Ponti Brighton MI 57 94 26:49.8 8:37/M
9 Timothy McDonnell Pinckney MI 56 103 27:24.4 8:49/M
10 Bob Fuchs Brighton MI 58 113 27:39.8 8:53/M
11 Richard Campeau Brighton MI 56 131 28:38.5 9:12/M
12 Bill Marshall Hartland MI 55 148 29:56.3 9:37/M
13 Keith Peterson Howell MI 58 149 30:09.5 9:42/M
14 Ronald Pytlak Brighton MI 57 163 31:12.9 10:02/M
15 Michael Beck Brighton MI 58 205 34:09.4 10:59/M
16 Patrick Cross Clinton Township MI 55 224 36:43.7 11:48/M
17 Joe Burke Wixom MI 57 284 48:01.4 15:26/M

Male 60 to 64

Place Name City Age Overall Total Time Pace
1 Stan Schafer Brighton MI 61 100 27:07.4 8:43/M
2 Jim Ortwine South Lyon MI 62 122 28:09.0 9:03/M
3 Richard Palacios Ann Arbor MI 64 130 28:34.7 9:11/M
4 Richard Brown Toledo OH 60 143 29:45.4 9:34/M
5 Bob Jacobson Holt MI 64 153 30:33.7 9:49/M
6 Martin Imhof Brighton MI 63 154 30:44.0 9:53/M
7 David Adams Charlotte MI 60 175 31:56.5 10:16/M
8 Randall Michmerhuizen Howell MI 60 252 39:25.6 12:40/M

Male 65 to 69

Place Name City Age Overall Total Time Pace
1 Stephen Norris Ann Arbor MI 65 25 21:45.8 7:00/M
2 Tony Hubbarth Brighton MI 68 34 22:36.7 7:16/M
3 John Reed Parma MI 67 76 25:53.0 8:19/M
4 Paul Doby Howell MI 67 109 27:29.7 8:50/M
5 Ian Shearing Brighton MI 69 187 32:37.2 10:29/M
6 Robert Loverde Brighton MI 68 266 41:46.5 13:26/M

Male 70 and over

Place Name City Age Overall Total Time Pace
1 Mark Cryderman Milford MI 71 79 26:10.9 8:25/M
2 Bill Drabing Brighton MI 99 139 29:08.7 9:22/M
3 Jerome Gross Brighton MI 80 275 45:15.5 14:33/M